sensor_id;sensor_type;location;lat;lon;timestamp;P1;durP1;ratioP1;P2;durP2;ratioP2
71869;SDS011;59739;47.696;11.746;2024-01-16T00:01:56;6.40;;;3.42;;
71869;SDS011;59739;47.696;11.746;2024-01-16T00:04:22;5.18;;;3.40;;
71869;SDS011;59739;47.696;11.746;2024-01-16T00:06:48;6.38;;;3.55;;
71869;SDS011;59739;47.696;11.746;2024-01-16T00:09:14;4.55;;;2.97;;
71869;SDS011;59739;47.696;11.746;2024-01-16T00:11:41;5.78;;;3.47;;
71869;SDS011;59739;47.696;11.746;2024-01-16T00:14:07;5.25;;;3.55;;
71869;SDS011;59739;47.696;11.746;2024-01-16T00:16:33;4.97;;;3.08;;
71869;SDS011;59739;47.696;11.746;2024-01-16T00:19:06;5.32;;;3.55;;
71869;SDS011;59739;47.696;11.746;2024-01-16T00:21:32;7.68;;;4.43;;
71869;SDS011;59739;47.696;11.746;2024-01-16T00:24:02;6.75;;;3.92;;
71869;SDS011;59739;47.696;11.746;2024-01-16T00:26:29;5.32;;;3.10;;
71869;SDS011;59739;47.696;11.746;2024-01-16T00:28:55;5.13;;;2.92;;
71869;SDS011;59739;47.696;11.746;2024-01-16T00:31:20;8.00;;;4.15;;
71869;SDS011;59739;47.696;11.746;2024-01-16T00:33:46;6.03;;;3.50;;
71869;SDS011;59739;47.696;11.746;2024-01-16T00:36:13;4.75;;;3.17;;
71869;SDS011;59739;47.696;11.746;2024-01-16T00:38:38;6.65;;;3.45;;
71869;SDS011;59739;47.696;11.746;2024-01-16T00:41:04;4.68;;;3.58;;
71869;SDS011;59739;47.696;11.746;2024-01-16T00:43:31;5.30;;;3.17;;
71869;SDS011;59739;47.696;11.746;2024-01-16T00:45:57;4.47;;;3.15;;
71869;SDS011;59739;47.696;11.746;2024-01-16T00:48:23;4.93;;;3.65;;
71869;SDS011;59739;47.696;11.746;2024-01-16T00:50:50;4.72;;;3.17;;
71869;SDS011;59739;47.696;11.746;2024-01-16T00:53:16;7.10;;;3.50;;
71869;SDS011;59739;47.696;11.746;2024-01-16T00:55:42;4.60;;;3.10;;
71869;SDS011;59739;47.696;11.746;2024-01-16T00:58:08;6.63;;;3.40;;
71869;SDS011;59739;47.696;11.746;2024-01-16T01:00:34;7.10;;;3.75;;
71869;SDS011;59739;47.696;11.746;2024-01-16T01:03:02;5.78;;;4.07;;
71869;SDS011;59739;47.696;11.746;2024-01-16T01:05:29;5.93;;;3.38;;
71869;SDS011;59739;47.696;11.746;2024-01-16T01:07:55;5.70;;;3.30;;
71869;SDS011;59739;47.696;11.746;2024-01-16T01:10:21;4.97;;;3.30;;
71869;SDS011;59739;47.696;11.746;2024-01-16T01:12:48;6.72;;;3.47;;
71869;SDS011;59739;47.696;11.746;2024-01-16T01:15:14;6.03;;;3.63;;
71869;SDS011;59739;47.696;11.746;2024-01-16T01:17:40;4.57;;;3.08;;
71869;SDS011;59739;47.696;11.746;2024-01-16T01:20:07;5.13;;;3.22;;
71869;SDS011;59739;47.696;11.746;2024-01-16T01:22:35;6.88;;;4.40;;
71869;SDS011;59739;47.696;11.746;2024-01-16T01:25:02;6.63;;;4.07;;
71869;SDS011;59739;47.696;11.746;2024-01-16T01:27:28;6.43;;;3.80;;
71869;SDS011;59739;47.696;11.746;2024-01-16T01:29:54;8.23;;;3.35;;
71869;SDS011;59739;47.696;11.746;2024-01-16T01:32:20;7.28;;;4.30;;
71869;SDS011;59739;47.696;11.746;2024-01-16T01:34:47;6.95;;;3.92;;
71869;SDS011;59739;47.696;11.746;2024-01-16T01:37:13;5.75;;;4.30;;
71869;SDS011;59739;47.696;11.746;2024-01-16T01:39:39;6.82;;;4.13;;
71869;SDS011;59739;47.696;11.746;2024-01-16T01:42:05;7.95;;;4.60;;
71869;SDS011;59739;47.696;11.746;2024-01-16T01:44:31;6.78;;;4.25;;
71869;SDS011;59739;47.696;11.746;2024-01-16T01:46:57;6.78;;;4.00;;
71869;SDS011;59739;47.696;11.746;2024-01-16T01:49:24;8.38;;;4.60;;
71869;SDS011;59739;47.696;11.746;2024-01-16T01:51:51;5.15;;;3.47;;
71869;SDS011;59739;47.696;11.746;2024-01-16T01:54:18;7.40;;;3.72;;
71869;SDS011;59739;47.696;11.746;2024-01-16T01:56:46;5.78;;;4.07;;
71869;SDS011;59739;47.696;11.746;2024-01-16T01:59:14;6.28;;;4.43;;
71869;SDS011;59739;47.696;11.746;2024-01-16T02:01:43;5.45;;;3.85;;
71869;SDS011;59739;47.696;11.746;2024-01-16T02:04:12;6.75;;;3.75;;
71869;SDS011;59739;47.696;11.746;2024-01-16T02:06:43;5.60;;;3.67;;
71869;SDS011;59739;47.696;11.746;2024-01-16T02:09:10;6.55;;;4.20;;
71869;SDS011;59739;47.696;11.746;2024-01-16T02:11:38;7.05;;;3.65;;
71869;SDS011;59739;47.696;11.746;2024-01-16T02:14:08;6.40;;;3.60;;
71869;SDS011;59739;47.696;11.746;2024-01-16T02:16:38;4.88;;;3.45;;
71869;SDS011;59739;47.696;11.746;2024-01-16T02:19:06;7.60;;;4.45;;
71869;SDS011;59739;47.696;11.746;2024-01-16T02:21:39;6.10;;;3.65;;
71869;SDS011;59739;47.696;11.746;2024-01-16T02:24:16;5.90;;;3.88;;
71869;SDS011;59739;47.696;11.746;2024-01-16T02:26:43;7.35;;;4.03;;
71869;SDS011;59739;47.696;11.746;2024-01-16T02:29:10;7.07;;;4.38;;
71869;SDS011;59739;47.696;11.746;2024-01-16T02:31:36;6.63;;;3.83;;
71869;SDS011;59739;47.696;11.746;2024-01-16T02:34:02;7.13;;;4.10;;
71869;SDS011;59739;47.696;11.746;2024-01-16T02:36:31;7.72;;;3.88;;
71869;SDS011;59739;47.696;11.746;2024-01-16T02:38:58;6.88;;;3.95;;
71869;SDS011;59739;47.696;11.746;2024-01-16T02:41:24;4.80;;;3.33;;
71869;SDS011;59739;47.696;11.746;2024-01-16T02:43:50;5.78;;;3.83;;
71869;SDS011;59739;47.696;11.746;2024-01-16T02:46:16;7.35;;;3.72;;
71869;SDS011;59739;47.696;11.746;2024-01-16T02:48:43;5.35;;;3.60;;
71869;SDS011;59739;47.696;11.746;2024-01-16T02:51:10;5.60;;;3.90;;
71869;SDS011;59739;47.696;11.746;2024-01-16T02:53:36;6.57;;;4.00;;
71869;SDS011;59739;47.696;11.746;2024-01-16T02:56:02;5.63;;;4.00;;
71869;SDS011;59739;47.696;11.746;2024-01-16T02:58:28;5.00;;;3.67;;
71869;SDS011;59739;47.696;11.746;2024-01-16T03:00:55;7.47;;;4.38;;
71869;SDS011;59739;47.696;11.746;2024-01-16T03:03:22;7.28;;;4.13;;
71869;SDS011;59739;47.696;11.746;2024-01-16T03:05:49;5.63;;;3.42;;
71869;SDS011;59739;47.696;11.746;2024-01-16T03:08:15;7.80;;;4.72;;
71869;SDS011;59739;47.696;11.746;2024-01-16T03:10:41;6.18;;;4.45;;
71869;SDS011;59739;47.696;11.746;2024-01-16T03:13:07;8.20;;;3.95;;
71869;SDS011;59739;47.696;11.746;2024-01-16T03:15:33;5.47;;;3.05;;
71869;SDS011;59739;47.696;11.746;2024-01-16T03:17:59;6.70;;;4.43;;
71869;SDS011;59739;47.696;11.746;2024-01-16T03:20:29;9.48;;;4.43;;
71869;SDS011;59739;47.696;11.746;2024-01-16T03:22:55;6.78;;;4.15;;
71869;SDS011;59739;47.696;11.746;2024-01-16T03:25:21;7.07;;;4.05;;
71869;SDS011;59739;47.696;11.746;2024-01-16T03:27:47;9.10;;;3.58;;
71869;SDS011;59739;47.696;11.746;2024-01-16T03:30:13;8.52;;;4.10;;
71869;SDS011;59739;47.696;11.746;2024-01-16T03:32:39;6.25;;;3.45;;
71869;SDS011;59739;47.696;11.746;2024-01-16T03:35:05;6.57;;;3.42;;
71869;SDS011;59739;47.696;11.746;2024-01-16T03:37:32;6.10;;;3.88;;
71869;SDS011;59739;47.696;11.746;2024-01-16T03:39:59;5.10;;;3.95;;
71869;SDS011;59739;47.696;11.746;2024-01-16T03:42:25;7.70;;;4.53;;
71869;SDS011;59739;47.696;11.746;2024-01-16T03:44:51;6.13;;;3.95;;
71869;SDS011;59739;47.696;11.746;2024-01-16T03:47:17;6.18;;;3.50;;
71869;SDS011;59739;47.696;11.746;2024-01-16T03:49:44;6.80;;;4.03;;
71869;SDS011;59739;47.696;11.746;2024-01-16T03:52:11;9.82;;;4.00;;
71869;SDS011;59739;47.696;11.746;2024-01-16T03:54:37;5.32;;;3.35;;
71869;SDS011;59739;47.696;11.746;2024-01-16T03:57:03;7.13;;;3.90;;
71869;SDS011;59739;47.696;11.746;2024-01-16T03:59:29;5.60;;;3.70;;
71869;SDS011;59739;47.696;11.746;2024-01-16T04:01:55;6.18;;;3.70;;
71869;SDS011;59739;47.696;11.746;2024-01-16T04:04:21;5.57;;;3.30;;
71869;SDS011;59739;47.696;11.746;2024-01-16T04:06:48;5.65;;;3.63;;
71869;SDS011;59739;47.696;11.746;2024-01-16T04:09:14;6.70;;;3.95;;
71869;SDS011;59739;47.696;11.746;2024-01-16T04:11:40;6.93;;;3.78;;
71869;SDS011;59739;47.696;11.746;2024-01-16T04:14:06;7.68;;;3.85;;
71869;SDS011;59739;47.696;11.746;2024-01-16T04:16:32;7.13;;;4.88;;
71869;SDS011;59739;47.696;11.746;2024-01-16T04:18:58;6.68;;;4.25;;
71869;SDS011;59739;47.696;11.746;2024-01-16T04:21:24;6.70;;;4.38;;
71869;SDS011;59739;47.696;11.746;2024-01-16T04:23:50;6.70;;;4.20;;
71869;SDS011;59739;47.696;11.746;2024-01-16T04:26:17;8.77;;;4.53;;
71869;SDS011;59739;47.696;11.746;2024-01-16T04:28:43;6.05;;;3.78;;
71869;SDS011;59739;47.696;11.746;2024-01-16T04:31:09;6.55;;;3.80;;
71869;SDS011;59739;47.696;11.746;2024-01-16T04:33:36;7.60;;;4.07;;
71869;SDS011;59739;47.696;11.746;2024-01-16T04:36:03;5.70;;;3.85;;
71869;SDS011;59739;47.696;11.746;2024-01-16T04:38:30;6.43;;;3.75;;
71869;SDS011;59739;47.696;11.746;2024-01-16T04:40:56;6.40;;;4.63;;
71869;SDS011;59739;47.696;11.746;2024-01-16T04:43:22;5.90;;;3.88;;
71869;SDS011;59739;47.696;11.746;2024-01-16T04:45:48;5.90;;;4.35;;
71869;SDS011;59739;47.696;11.746;2024-01-16T04:48:14;6.05;;;3.50;;
71869;SDS011;59739;47.696;11.746;2024-01-16T04:50:39;5.00;;;3.53;;
71869;SDS011;59739;47.696;11.746;2024-01-16T04:53:05;5.60;;;3.78;;
71869;SDS011;59739;47.696;11.746;2024-01-16T04:55:32;6.53;;;3.60;;
71869;SDS011;59739;47.696;11.746;2024-01-16T04:57:58;8.38;;;3.90;;
71869;SDS011;59739;47.696;11.746;2024-01-16T05:00:25;7.70;;;3.78;;
71869;SDS011;59739;47.696;11.746;2024-01-16T05:02:51;5.65;;;3.60;;
71869;SDS011;59739;47.696;11.746;2024-01-16T05:05:19;6.00;;;3.55;;
71869;SDS011;59739;47.696;11.746;2024-01-16T05:07:45;6.40;;;3.75;;
71869;SDS011;59739;47.696;11.746;2024-01-16T05:10:11;6.60;;;3.67;;
71869;SDS011;59739;47.696;11.746;2024-01-16T05:12:40;16.98;;;8.18;;
71869;SDS011;59739;47.696;11.746;2024-01-16T05:15:07;13.43;;;6.70;;
71869;SDS011;59739;47.696;11.746;2024-01-16T05:17:36;7.40;;;3.92;;
71869;SDS011;59739;47.696;11.746;2024-01-16T05:20:03;8.95;;;4.60;;
71869;SDS011;59739;47.696;11.746;2024-01-16T05:22:29;9.23;;;6.68;;
71869;SDS011;59739;47.696;11.746;2024-01-16T05:24:56;8.18;;;5.50;;
71869;SDS011;59739;47.696;11.746;2024-01-16T05:27:22;7.47;;;4.43;;
71869;SDS011;59739;47.696;11.746;2024-01-16T05:29:48;6.47;;;3.85;;
71869;SDS011;59739;47.696;11.746;2024-01-16T05:32:14;7.72;;;4.20;;
71869;SDS011;59739;47.696;11.746;2024-01-16T05:34:40;7.90;;;4.20;;
71869;SDS011;59739;47.696;11.746;2024-01-16T05:37:06;7.82;;;4.22;;
71869;SDS011;59739;47.696;11.746;2024-01-16T05:39:32;6.18;;;4.30;;
71869;SDS011;59739;47.696;11.746;2024-01-16T05:41:58;6.72;;;4.65;;
71869;SDS011;59739;47.696;11.746;2024-01-16T05:44:24;9.05;;;5.47;;
71869;SDS011;59739;47.696;11.746;2024-01-16T05:46:50;8.00;;;4.35;;
71869;SDS011;59739;47.696;11.746;2024-01-16T05:49:16;4.78;;;3.50;;
71869;SDS011;59739;47.696;11.746;2024-01-16T05:51:42;6.80;;;4.38;;
71869;SDS011;59739;47.696;11.746;2024-01-16T05:54:07;6.97;;;4.80;;
71869;SDS011;59739;47.696;11.746;2024-01-16T05:56:33;8.75;;;5.10;;
71869;SDS011;59739;47.696;11.746;2024-01-16T05:58:59;9.27;;;4.32;;
71869;SDS011;59739;47.696;11.746;2024-01-16T06:01:25;7.60;;;3.80;;
71869;SDS011;59739;47.696;11.746;2024-01-16T06:03:52;7.55;;;4.30;;
71869;SDS011;59739;47.696;11.746;2024-01-16T06:06:18;7.05;;;4.47;;
71869;SDS011;59739;47.696;11.746;2024-01-16T06:08:44;8.80;;;3.85;;
71869;SDS011;59739;47.696;11.746;2024-01-16T06:11:10;6.90;;;4.00;;
71869;SDS011;59739;47.696;11.746;2024-01-16T06:13:37;6.57;;;4.07;;
71869;SDS011;59739;47.696;11.746;2024-01-16T06:16:05;6.50;;;4.07;;
71869;SDS011;59739;47.696;11.746;2024-01-16T06:18:33;7.47;;;4.20;;
71869;SDS011;59739;47.696;11.746;2024-01-16T06:21:00;7.75;;;5.25;;
71869;SDS011;59739;47.696;11.746;2024-01-16T06:23:26;7.63;;;5.43;;
71869;SDS011;59739;47.696;11.746;2024-01-16T06:25:52;9.77;;;4.72;;
71869;SDS011;59739;47.696;11.746;2024-01-16T06:28:18;10.10;;;6.03;;
71869;SDS011;59739;47.696;11.746;2024-01-16T06:30:44;9.20;;;5.93;;
71869;SDS011;59739;47.696;11.746;2024-01-16T06:33:10;8.45;;;5.30;;
71869;SDS011;59739;47.696;11.746;2024-01-16T06:35:36;9.02;;;5.95;;
71869;SDS011;59739;47.696;11.746;2024-01-16T06:38:02;9.65;;;6.10;;
71869;SDS011;59739;47.696;11.746;2024-01-16T06:40:28;10.27;;;6.22;;
71869;SDS011;59739;47.696;11.746;2024-01-16T06:42:54;7.55;;;4.65;;
71869;SDS011;59739;47.696;11.746;2024-01-16T06:45:19;7.13;;;4.75;;
71869;SDS011;59739;47.696;11.746;2024-01-16T06:47:45;7.25;;;4.63;;
71869;SDS011;59739;47.696;11.746;2024-01-16T06:50:11;7.38;;;4.68;;
71869;SDS011;59739;47.696;11.746;2024-01-16T06:52:37;8.90;;;4.45;;
71869;SDS011;59739;47.696;11.746;2024-01-16T06:55:03;8.20;;;5.07;;
71869;SDS011;59739;47.696;11.746;2024-01-16T06:57:29;10.68;;;5.80;;
71869;SDS011;59739;47.696;11.746;2024-01-16T06:59:55;8.30;;;5.68;;
71869;SDS011;59739;47.696;11.746;2024-01-16T07:02:21;9.38;;;5.13;;
71869;SDS011;59739;47.696;11.746;2024-01-16T07:04:47;13.25;;;5.35;;
71869;SDS011;59739;47.696;11.746;2024-01-16T07:07:13;9.68;;;5.00;;
71869;SDS011;59739;47.696;11.746;2024-01-16T07:09:39;8.70;;;4.85;;
71869;SDS011;59739;47.696;11.746;2024-01-16T07:12:05;8.75;;;4.03;;
71869;SDS011;59739;47.696;11.746;2024-01-16T07:14:32;7.35;;;4.45;;
71869;SDS011;59739;47.696;11.746;2024-01-16T07:16:58;11.77;;;4.55;;
71869;SDS011;59739;47.696;11.746;2024-01-16T07:19:24;8.45;;;4.65;;
71869;SDS011;59739;47.696;11.746;2024-01-16T07:21:50;9.57;;;5.32;;
71869;SDS011;59739;47.696;11.746;2024-01-16T07:24:16;12.27;;;6.22;;
71869;SDS011;59739;47.696;11.746;2024-01-16T07:26:42;10.73;;;4.30;;
71869;SDS011;59739;47.696;11.746;2024-01-16T07:29:07;7.88;;;4.43;;
71869;SDS011;59739;47.696;11.746;2024-01-16T07:31:34;9.98;;;4.80;;
71869;SDS011;59739;47.696;11.746;2024-01-16T07:34:00;9.82;;;4.50;;
71869;SDS011;59739;47.696;11.746;2024-01-16T07:36:26;7.32;;;5.18;;
71869;SDS011;59739;47.696;11.746;2024-01-16T07:38:52;12.15;;;5.18;;
71869;SDS011;59739;47.696;11.746;2024-01-16T07:41:17;7.93;;;5.68;;
71869;SDS011;59739;47.696;11.746;2024-01-16T07:43:44;10.77;;;5.18;;
71869;SDS011;59739;47.696;11.746;2024-01-16T07:46:10;9.02;;;4.93;;
71869;SDS011;59739;47.696;11.746;2024-01-16T07:48:36;11.00;;;6.20;;
71869;SDS011;59739;47.696;11.746;2024-01-16T07:51:02;9.85;;;5.13;;
71869;SDS011;59739;47.696;11.746;2024-01-16T07:53:29;8.35;;;5.43;;
71869;SDS011;59739;47.696;11.746;2024-01-16T07:55:54;11.05;;;5.65;;
71869;SDS011;59739;47.696;11.746;2024-01-16T07:58:20;8.32;;;5.20;;
71869;SDS011;59739;47.696;11.746;2024-01-16T08:00:47;7.90;;;4.75;;
71869;SDS011;59739;47.696;11.746;2024-01-16T08:03:13;10.45;;;6.03;;
71869;SDS011;59739;47.696;11.746;2024-01-16T08:05:39;8.52;;;5.80;;
71869;SDS011;59739;47.696;11.746;2024-01-16T08:08:08;8.10;;;4.25;;
71869;SDS011;59739;47.696;11.746;2024-01-16T08:10:37;8.65;;;4.57;;
71869;SDS011;59739;47.696;11.746;2024-01-16T08:13:06;8.02;;;4.68;;
71869;SDS011;59739;47.696;11.746;2024-01-16T08:15:32;6.47;;;4.75;;
71869;SDS011;59739;47.696;11.746;2024-01-16T08:17:59;8.35;;;4.65;;
71869;SDS011;59739;47.696;11.746;2024-01-16T08:20:25;10.27;;;4.95;;
71869;SDS011;59739;47.696;11.746;2024-01-16T08:22:51;9.18;;;4.95;;
71869;SDS011;59739;47.696;11.746;2024-01-16T08:25:18;7.72;;;5.03;;
71869;SDS011;59739;47.696;11.746;2024-01-16T08:27:44;7.20;;;3.92;;
71869;SDS011;59739;47.696;11.746;2024-01-16T08:30:10;9.98;;;5.10;;
71869;SDS011;59739;47.696;11.746;2024-01-16T08:32:37;7.68;;;5.03;;
71869;SDS011;59739;47.696;11.746;2024-01-16T08:35:03;9.50;;;4.88;;
71869;SDS011;59739;47.696;11.746;2024-01-16T08:37:31;9.82;;;5.15;;
71869;SDS011;59739;47.696;11.746;2024-01-16T08:39:59;7.60;;;5.15;;
71869;SDS011;59739;47.696;11.746;2024-01-16T08:42:25;7.68;;;4.30;;
71869;SDS011;59739;47.696;11.746;2024-01-16T08:44:51;9.70;;;5.00;;
71869;SDS011;59739;47.696;11.746;2024-01-16T08:47:17;8.85;;;4.93;;
71869;SDS011;59739;47.696;11.746;2024-01-16T08:49:44;9.70;;;4.70;;
71869;SDS011;59739;47.696;11.746;2024-01-16T08:52:10;7.63;;;4.15;;
71869;SDS011;59739;47.696;11.746;2024-01-16T08:54:36;7.10;;;4.70;;
71869;SDS011;59739;47.696;11.746;2024-01-16T08:57:02;7.78;;;4.60;;
71869;SDS011;59739;47.696;11.746;2024-01-16T08:59:28;8.52;;;4.53;;
71869;SDS011;59739;47.696;11.746;2024-01-16T09:01:54;7.78;;;4.43;;
71869;SDS011;59739;47.696;11.746;2024-01-16T09:04:20;7.13;;;4.28;;
71869;SDS011;59739;47.696;11.746;2024-01-16T09:06:46;7.78;;;4.78;;
71869;SDS011;59739;47.696;11.746;2024-01-16T09:09:12;8.55;;;4.95;;
71869;SDS011;59739;47.696;11.746;2024-01-16T09:11:38;7.82;;;4.55;;
71869;SDS011;59739;47.696;11.746;2024-01-16T09:14:04;8.93;;;4.85;;
71869;SDS011;59739;47.696;11.746;2024-01-16T09:16:30;6.93;;;4.03;;
71869;SDS011;59739;47.696;11.746;2024-01-16T09:18:56;9.25;;;5.18;;
71869;SDS011;59739;47.696;11.746;2024-01-16T09:21:22;6.68;;;4.22;;
71869;SDS011;59739;47.696;11.746;2024-01-16T09:23:48;6.82;;;4.50;;
71869;SDS011;59739;47.696;11.746;2024-01-16T09:26:14;8.43;;;4.65;;
71869;SDS011;59739;47.696;11.746;2024-01-16T09:28:40;7.57;;;4.45;;
71869;SDS011;59739;47.696;11.746;2024-01-16T09:31:06;9.48;;;5.07;;
71869;SDS011;59739;47.696;11.746;2024-01-16T09:33:33;7.68;;;4.28;;
71869;SDS011;59739;47.696;11.746;2024-01-16T09:35:59;7.32;;;4.28;;
71869;SDS011;59739;47.696;11.746;2024-01-16T09:38:25;7.32;;;4.53;;
71869;SDS011;59739;47.696;11.746;2024-01-16T09:40:52;9.02;;;5.15;;
71869;SDS011;59739;47.696;11.746;2024-01-16T09:43:22;10.07;;;4.82;;
71869;SDS011;59739;47.696;11.746;2024-01-16T09:45:48;8.30;;;4.60;;
71869;SDS011;59739;47.696;11.746;2024-01-16T09:48:16;8.75;;;4.93;;
71869;SDS011;59739;47.696;11.746;2024-01-16T09:50:42;7.07;;;4.03;;
71869;SDS011;59739;47.696;11.746;2024-01-16T09:53:08;8.10;;;4.35;;
71869;SDS011;59739;47.696;11.746;2024-01-16T09:55:35;8.73;;;4.35;;
71869;SDS011;59739;47.696;11.746;2024-01-16T09:58:01;5.90;;;4.13;;
71869;SDS011;59739;47.696;11.746;2024-01-16T10:00:28;5.13;;;3.35;;
71869;SDS011;59739;47.696;11.746;2024-01-16T10:02:55;4.63;;;3.13;;
71869;SDS011;59739;47.696;11.746;2024-01-16T10:05:24;5.80;;;3.90;;
71869;SDS011;59739;47.696;11.746;2024-01-16T10:07:50;5.60;;;3.47;;
71869;SDS011;59739;47.696;11.746;2024-01-16T10:10:17;5.70;;;3.70;;
71869;SDS011;59739;47.696;11.746;2024-01-16T10:12:45;6.60;;;3.72;;
71869;SDS011;59739;47.696;11.746;2024-01-16T10:15:12;5.70;;;4.03;;
71869;SDS011;59739;47.696;11.746;2024-01-16T10:17:41;6.50;;;3.58;;
71869;SDS011;59739;47.696;11.746;2024-01-16T10:20:11;6.55;;;4.45;;
71869;SDS011;59739;47.696;11.746;2024-01-16T10:22:52;6.68;;;4.30;;
71869;SDS011;59739;47.696;11.746;2024-01-16T10:25:18;7.20;;;4.30;;
71869;SDS011;59739;47.696;11.746;2024-01-16T10:27:46;5.25;;;3.60;;
71869;SDS011;59739;47.696;11.746;2024-01-16T10:30:12;4.90;;;3.50;;
71869;SDS011;59739;47.696;11.746;2024-01-16T10:32:42;6.38;;;3.13;;
71869;SDS011;59739;47.696;11.746;2024-01-16T10:35:12;4.13;;;3.28;;
71869;SDS011;59739;47.696;11.746;2024-01-16T10:37:54;5.25;;;3.10;;
71869;SDS011;59739;47.696;11.746;2024-01-16T10:43:04;6.15;;;3.20;;
71869;SDS011;59739;47.696;11.746;2024-01-16T10:45:31;5.20;;;3.70;;
71869;SDS011;59739;47.696;11.746;2024-01-16T10:50:27;5.40;;;3.65;;
71869;SDS011;59739;47.696;11.746;2024-01-16T10:52:54;7.57;;;4.13;;
71869;SDS011;59739;47.696;11.746;2024-01-16T10:55:23;5.38;;;3.35;;
71869;SDS011;59739;47.696;11.746;2024-01-16T10:57:51;6.38;;;3.70;;
71869;SDS011;59739;47.696;11.746;2024-01-16T11:00:21;6.25;;;3.65;;
71869;SDS011;59739;47.696;11.746;2024-01-16T11:02:56;6.35;;;3.45;;
71869;SDS011;59739;47.696;11.746;2024-01-16T11:05:25;7.47;;;4.35;;
71869;SDS011;59739;47.696;11.746;2024-01-16T11:07:55;7.03;;;4.15;;
71869;SDS011;59739;47.696;11.746;2024-01-16T11:10:23;6.93;;;4.32;;
71869;SDS011;59739;47.696;11.746;2024-01-16T11:12:50;6.03;;;4.05;;
71869;SDS011;59739;47.696;11.746;2024-01-16T11:15:17;6.93;;;3.50;;
71869;SDS011;59739;47.696;11.746;2024-01-16T11:17:44;6.10;;;4.03;;
71869;SDS011;59739;47.696;11.746;2024-01-16T11:20:11;5.68;;;3.90;;
71869;SDS011;59739;47.696;11.746;2024-01-16T11:22:41;5.60;;;3.72;;
71869;SDS011;59739;47.696;11.746;2024-01-16T11:25:13;8.63;;;4.80;;
71869;SDS011;59739;47.696;11.746;2024-01-16T11:27:41;7.83;;;5.07;;
71869;SDS011;59739;47.696;11.746;2024-01-16T11:30:08;7.90;;;4.72;;
71869;SDS011;59739;47.696;11.746;2024-01-16T11:32:37;8.05;;;5.07;;
71869;SDS011;59739;47.696;11.746;2024-01-16T11:35:09;7.93;;;5.00;;
71869;SDS011;59739;47.696;11.746;2024-01-16T11:37:39;6.97;;;4.45;;
71869;SDS011;59739;47.696;11.746;2024-01-16T11:40:26;8.07;;;4.95;;
71869;SDS011;59739;47.696;11.746;2024-01-16T11:42:56;7.45;;;4.82;;
71869;SDS011;59739;47.696;11.746;2024-01-16T11:48:10;7.88;;;5.10;;
71869;SDS011;59739;47.696;11.746;2024-01-16T11:50:42;9.85;;;5.65;;
71869;SDS011;59739;47.696;11.746;2024-01-16T11:53:08;8.57;;;5.10;;
71869;SDS011;59739;47.696;11.746;2024-01-16T11:55:35;6.65;;;4.93;;
71869;SDS011;59739;47.696;11.746;2024-01-16T11:58:11;7.45;;;4.45;;
71869;SDS011;59739;47.696;11.746;2024-01-16T12:01:10;7.60;;;4.97;;
71869;SDS011;59739;47.696;11.746;2024-01-16T12:03:37;6.15;;;4.32;;
71869;SDS011;59739;47.696;11.746;2024-01-16T12:06:03;7.60;;;4.55;;
71869;SDS011;59739;47.696;11.746;2024-01-16T12:08:31;6.97;;;4.80;;
71869;SDS011;59739;47.696;11.746;2024-01-16T12:10:57;7.53;;;4.80;;
71869;SDS011;59739;47.696;11.746;2024-01-16T12:13:26;6.15;;;4.03;;
71869;SDS011;59739;47.696;11.746;2024-01-16T12:16:02;8.93;;;5.05;;
71869;SDS011;59739;47.696;11.746;2024-01-16T12:18:29;9.80;;;5.40;;
71869;SDS011;59739;47.696;11.746;2024-01-16T12:20:55;8.23;;;5.93;;
71869;SDS011;59739;47.696;11.746;2024-01-16T12:23:21;7.80;;;4.93;;
71869;SDS011;59739;47.696;11.746;2024-01-16T12:25:51;8.90;;;5.60;;
71869;SDS011;59739;47.696;11.746;2024-01-16T12:28:24;7.43;;;5.05;;
71869;SDS011;59739;47.696;11.746;2024-01-16T12:30:50;7.38;;;5.25;;
71869;SDS011;59739;47.696;11.746;2024-01-16T12:33:16;7.75;;;5.35;;
71869;SDS011;59739;47.696;11.746;2024-01-16T12:35:47;6.85;;;5.38;;
71869;SDS011;59739;47.696;11.746;2024-01-16T12:38:15;7.93;;;5.35;;
71869;SDS011;59739;47.696;11.746;2024-01-16T12:40:46;8.95;;;5.60;;
71869;SDS011;59739;47.696;11.746;2024-01-16T12:43:15;9.50;;;5.70;;
71869;SDS011;59739;47.696;11.746;2024-01-16T12:45:43;9.57;;;5.43;;
71869;SDS011;59739;47.696;11.746;2024-01-16T12:48:10;9.48;;;6.00;;
71869;SDS011;59739;47.696;11.746;2024-01-16T12:50:36;8.25;;;5.78;;
71869;SDS011;59739;47.696;11.746;2024-01-16T12:53:03;9.70;;;5.30;;
71869;SDS011;59739;47.696;11.746;2024-01-16T12:55:38;7.40;;;4.90;;
71869;SDS011;59739;47.696;11.746;2024-01-16T13:00:49;8.82;;;5.25;;
71869;SDS011;59739;47.696;11.746;2024-01-16T13:03:17;9.35;;;5.95;;
71869;SDS011;59739;47.696;11.746;2024-01-16T13:05:44;9.93;;;5.43;;
71869;SDS011;59739;47.696;11.746;2024-01-16T13:08:19;9.27;;;5.50;;
71869;SDS011;59739;47.696;11.746;2024-01-16T13:10:47;8.35;;;5.00;;
71869;SDS011;59739;47.696;11.746;2024-01-16T13:13:28;7.10;;;5.47;;
71869;SDS011;59739;47.696;11.746;2024-01-16T13:15:54;8.82;;;5.75;;
71869;SDS011;59739;47.696;11.746;2024-01-16T13:18:26;7.93;;;5.75;;
71869;SDS011;59739;47.696;11.746;2024-01-16T13:20:54;7.33;;;5.03;;
71869;SDS011;59739;47.696;11.746;2024-01-16T13:23:21;9.27;;;5.53;;
71869;SDS011;59739;47.696;11.746;2024-01-16T13:25:52;9.05;;;5.43;;
71869;SDS011;59739;47.696;11.746;2024-01-16T13:28:21;8.10;;;5.32;;
71869;SDS011;59739;47.696;11.746;2024-01-16T13:30:48;6.88;;;4.90;;
71869;SDS011;59739;47.696;11.746;2024-01-16T13:33:14;7.35;;;4.75;;
71869;SDS011;59739;47.696;11.746;2024-01-16T13:35:42;7.95;;;4.57;;
71869;SDS011;59739;47.696;11.746;2024-01-16T13:38:12;6.85;;;5.47;;
71869;SDS011;59739;47.696;11.746;2024-01-16T13:40:41;8.55;;;5.20;;
71869;SDS011;59739;47.696;11.746;2024-01-16T13:43:07;9.55;;;5.05;;
71869;SDS011;59739;47.696;11.746;2024-01-16T13:45:33;6.70;;;4.80;;
71869;SDS011;59739;47.696;11.746;2024-01-16T13:48:04;7.90;;;5.05;;
71869;SDS011;59739;47.696;11.746;2024-01-16T13:50:34;9.33;;;5.07;;
71869;SDS011;59739;47.696;11.746;2024-01-16T13:53:01;8.35;;;5.28;;
71869;SDS011;59739;47.696;11.746;2024-01-16T13:55:27;7.55;;;4.88;;
71869;SDS011;59739;47.696;11.746;2024-01-16T13:57:53;7.90;;;4.82;;
71869;SDS011;59739;47.696;11.746;2024-01-16T14:00:19;6.53;;;4.30;;
71869;SDS011;59739;47.696;11.746;2024-01-16T14:02:46;7.72;;;4.82;;
71869;SDS011;59739;47.696;11.746;2024-01-16T14:05:13;7.35;;;4.80;;
71869;SDS011;59739;47.696;11.746;2024-01-16T14:07:44;8.63;;;4.57;;
71869;SDS011;59739;47.696;11.746;2024-01-16T14:10:12;7.47;;;4.88;;
71869;SDS011;59739;47.696;11.746;2024-01-16T14:12:39;6.43;;;4.90;;
71869;SDS011;59739;47.696;11.746;2024-01-16T14:15:13;6.28;;;4.78;;
71869;SDS011;59739;47.696;11.746;2024-01-16T14:17:43;8.18;;;5.10;;
71869;SDS011;59739;47.696;11.746;2024-01-16T14:20:11;8.75;;;4.57;;
71869;SDS011;59739;47.696;11.746;2024-01-16T14:22:38;7.45;;;4.97;;
71869;SDS011;59739;47.696;11.746;2024-01-16T14:25:08;7.80;;;4.90;;
71869;SDS011;59739;47.696;11.746;2024-01-16T14:27:41;7.25;;;4.57;;
71869;SDS011;59739;47.696;11.746;2024-01-16T14:30:09;8.55;;;5.28;;
71869;SDS011;59739;47.696;11.746;2024-01-16T14:32:40;6.82;;;4.53;;
71869;SDS011;59739;47.696;11.746;2024-01-16T14:35:09;7.80;;;4.47;;
71869;SDS011;59739;47.696;11.746;2024-01-16T14:37:38;8.57;;;5.35;;
71869;SDS011;59739;47.696;11.746;2024-01-16T14:40:05;9.93;;;4.55;;
71869;SDS011;59739;47.696;11.746;2024-01-16T14:42:41;7.75;;;5.25;;
71869;SDS011;59739;47.696;11.746;2024-01-16T14:45:09;8.05;;;4.95;;